createdAt,value
2022-10-25T00:02:05.791Z,1.50
2022-10-25T00:06:10.509Z,1.17
2022-10-25T00:10:11.893Z,1.13
2022-10-25T00:14:13.444Z,1.40
2022-10-25T00:18:15.012Z,1.77
2022-10-25T00:22:17.928Z,1.70
2022-10-25T00:26:20.149Z,1.70
2022-10-25T00:30:21.578Z,1.47
2022-10-25T00:34:22.952Z,1.30
2022-10-25T00:38:25.857Z,1.50
2022-10-25T00:42:29.055Z,1.37
2022-10-25T00:46:31.832Z,1.50
2022-10-25T00:50:40.085Z,2.07
2022-10-25T00:54:46.337Z,1.30
2022-10-25T00:58:54.951Z,1.30
2022-10-25T01:07:04.091Z,1.50
2022-10-25T01:11:07.072Z,1.53
2022-10-25T01:15:09.681Z,1.73
2022-10-25T01:19:36.093Z,1.60
2022-10-25T01:23:55.461Z,1.47
2022-10-25T01:28:08.932Z,1.53
2022-10-25T01:32:20.316Z,1.50
2022-10-25T01:36:31.854Z,1.90
2022-10-25T01:40:42.908Z,1.30
2022-10-25T01:44:50.844Z,1.30
2022-10-25T01:49:01.368Z,1.23
2022-10-25T01:53:03.109Z,2.10
2022-10-25T01:57:19.743Z,1.30
2022-10-25T02:01:30.024Z,1.67
2022-10-25T02:05:41.468Z,1.70
2022-10-25T02:09:53.047Z,1.40
2022-10-25T02:14:05.955Z,1.60
2022-10-25T02:18:12.720Z,1.33
2022-10-25T02:22:16.608Z,1.30
2022-10-25T02:26:19.675Z,1.17
2022-10-25T02:30:21.376Z,1.40
2022-10-25T02:34:23.073Z,1.33
2022-10-25T02:38:26.013Z,1.30
2022-10-25T02:42:27.652Z,1.10
2022-10-25T02:46:29.049Z,1.73
2022-10-25T02:50:30.564Z,1.20
2022-10-25T02:54:34.581Z,1.77
2022-10-25T02:58:38.325Z,1.47
2022-10-25T03:02:39.720Z,1.30
2022-10-25T03:06:41.286Z,1.50
2022-10-25T03:10:44.256Z,1.40
2022-10-25T03:14:45.673Z,1.47
2022-10-25T03:18:47.305Z,1.30
2022-10-25T03:22:48.897Z,1.57
2022-10-25T03:26:51.764Z,1.50
2022-10-25T03:30:53.240Z,1.53
2022-10-25T03:34:54.632Z,1.93
2022-10-25T03:38:56.077Z,2.50
2022-10-25T03:42:59.068Z,2.30
2022-10-25T03:47:00.512Z,1.70
2022-10-25T03:51:02.201Z,1.40
2022-10-25T03:55:03.972Z,1.60
2022-10-25T03:59:06.990Z,1.37
2022-10-25T04:03:09.248Z,1.50
2022-10-25T04:07:10.856Z,1.70
2022-10-25T04:11:12.464Z,1.50
2022-10-25T04:15:15.621Z,1.70
2022-10-25T04:19:17.240Z,2.77
2022-10-25T04:23:18.631Z,1.73
2022-10-25T04:27:20.184Z,1.50
2022-10-25T04:31:24.797Z,1.83
2022-10-25T04:35:26.464Z,1.77
2022-10-25T04:39:27.954Z,1.93
2022-10-25T04:43:31.208Z,1.90
2022-10-25T04:47:34.073Z,2.10
2022-10-25T04:51:35.492Z,2.20
2022-10-25T04:55:37.158Z,1.80
2022-10-25T04:59:38.645Z,2.17
2022-10-25T05:03:41.583Z,2.40
2022-10-25T05:07:43.259Z,1.80
2022-10-25T05:11:44.678Z,1.77
2022-10-25T05:15:54.175Z,2.23
2022-10-25T05:19:56.964Z,1.80
2022-10-25T05:24:02.281Z,2.10
2022-10-25T05:28:04.336Z,1.90
2022-10-25T05:32:06.326Z,2.27
2022-10-25T05:36:09.387Z,2.13
2022-10-25T05:40:11.806Z,1.80
2022-10-25T05:44:13.373Z,1.63
2022-10-25T05:48:15.161Z,1.60
2022-10-25T05:52:18.039Z,1.87
2022-10-25T05:56:22.035Z,1.97
2022-10-25T06:00:23.467Z,1.60
2022-10-25T06:04:25.150Z,1.90
2022-10-25T06:08:27.955Z,2.10
2022-10-25T06:12:29.511Z,2.00
2022-10-25T06:16:31.316Z,2.87
2022-10-25T06:20:32.928Z,2.10
2022-10-25T06:24:35.763Z,2.60
2022-10-25T06:28:38.367Z,2.00
2022-10-25T06:32:39.921Z,1.90
2022-10-25T06:36:41.482Z,1.90
2022-10-25T06:40:44.203Z,1.80
2022-10-25T06:44:45.610Z,1.90
2022-10-25T06:48:47.318Z,2.07
2022-10-25T06:52:49.185Z,1.70
2022-10-25T06:56:52.517Z,2.00
2022-10-25T07:00:53.941Z,1.43
2022-10-25T07:04:55.352Z,1.50
2022-10-25T07:08:58.220Z,1.67
2022-10-25T07:13:01.109Z,1.50
2022-10-25T07:17:02.530Z,1.50
2022-10-25T07:21:06.462Z,1.60
2022-10-25T07:29:16.500Z,1.43
2022-10-25T07:33:20.255Z,1.43
2022-10-25T07:37:21.660Z,1.47
2022-10-25T07:41:23.474Z,1.73
2022-10-25T07:45:27.632Z,1.40
2022-10-25T07:49:30.458Z,1.40
2022-10-25T07:53:31.882Z,1.20
2022-10-25T07:57:33.415Z,1.70
2022-10-25T08:01:36.239Z,1.80
2022-10-25T08:05:39.991Z,1.90
2022-10-25T08:09:41.409Z,1.60
2022-10-25T08:13:42.796Z,1.80
2022-10-25T08:17:46.091Z,1.47
2022-10-25T08:21:48.009Z,1.53
2022-10-25T08:25:49.588Z,1.40
2022-10-25T08:29:50.961Z,1.93
2022-10-25T08:33:53.670Z,1.70
2022-10-25T08:37:55.068Z,1.40
2022-10-25T08:41:59.352Z,1.60
2022-10-25T08:46:04.607Z,1.47
2022-10-25T08:50:16.260Z,1.80
2022-10-25T08:54:29.797Z,1.60
2022-10-25T08:58:35.125Z,1.23
2022-10-25T09:02:40.673Z,1.70
2022-10-25T09:06:54.356Z,1.30
2022-10-25T09:11:05.246Z,1.50
2022-10-25T09:15:15.260Z,1.20
2022-10-25T09:19:22.116Z,1.50
2022-10-25T09:23:30.219Z,1.60
2022-10-25T09:27:36.027Z,1.57
2022-10-25T09:31:41.322Z,1.27
2022-10-25T09:35:45.974Z,1.30
2022-10-25T09:39:51.944Z,1.10
2022-10-25T09:43:57.980Z,1.93
2022-10-25T09:48:08.662Z,1.57
2022-10-25T09:52:16.217Z,1.40
2022-10-25T09:56:19.181Z,1.53
2022-10-25T10:00:21.041Z,1.40
2022-10-25T10:04:26.394Z,1.53
2022-10-25T10:08:31.673Z,1.60
2022-10-25T10:12:42.198Z,1.80
2022-10-25T10:16:46.236Z,1.90
2022-10-25T10:21:03.092Z,2.20
2022-10-25T10:25:05.429Z,1.67
2022-10-25T10:29:17.621Z,1.60
2022-10-25T10:33:19.611Z,1.43
2022-10-25T10:37:23.132Z,1.30
2022-10-25T10:41:27.278Z,1.40
2022-10-25T10:45:30.217Z,1.33
2022-10-25T10:49:37.198Z,1.67
2022-10-25T10:53:38.709Z,1.57
2022-10-25T10:57:40.238Z,1.60
2022-10-25T11:01:43.256Z,1.50
2022-10-25T11:05:53.632Z,1.20
2022-10-25T11:10:27.630Z,1.10
2022-10-25T11:14:29.022Z,1.50
2022-10-25T11:18:41.932Z,1.50
2022-10-25T11:22:53.751Z,1.30
2022-10-25T11:27:01.849Z,1.43
2022-10-25T11:31:14.172Z,1.10
2022-10-25T11:35:33.227Z,1.53
2022-10-25T11:39:48.502Z,1.10
2022-10-25T11:44:02.525Z,1.30
2022-10-25T11:48:33.521Z,1.10
2022-10-25T11:52:56.833Z,1.00
2022-10-25T11:57:09.618Z,1.40
2022-10-25T12:01:25.032Z,1.10
2022-10-25T12:05:33.810Z,1.40
2022-10-25T12:09:42.542Z,1.33
2022-10-25T12:13:47.620Z,1.10
2022-10-25T12:17:50.668Z,1.00
2022-10-25T12:21:59.228Z,0.93
2022-10-25T12:26:07.037Z,1.10
2022-10-25T12:30:15.688Z,1.30
2022-10-25T12:34:22.040Z,1.13
2022-10-25T12:38:30.647Z,0.97
2022-10-25T12:42:40.659Z,1.20
2022-10-25T12:47:11.767Z,0.90
2022-10-25T12:51:27.083Z,1.23
2022-10-25T12:55:48.001Z,1.20
2022-10-25T13:00:01.469Z,0.80
2022-10-25T13:04:27.863Z,0.83
2022-10-25T13:08:29.421Z,1.07
2022-10-25T13:12:33.193Z,0.93
2022-10-25T13:16:36.017Z,1.10
2022-10-25T13:20:48.892Z,1.00
2022-10-25T13:24:50.307Z,1.00
2022-10-25T13:28:54.137Z,1.37
2022-10-25T13:33:31.335Z,0.93
2022-10-25T13:37:42.593Z,1.00
2022-10-25T13:41:44.433Z,0.80
2022-10-25T13:45:47.626Z,1.10
2022-10-25T13:49:49.475Z,0.80
2022-10-25T13:53:54.150Z,1.00
2022-10-25T13:57:56.480Z,1.10
2022-10-25T14:02:08.430Z,1.10
2022-10-25T14:06:26.107Z,1.00
2022-10-25T14:10:34.931Z,0.97
2022-10-25T14:14:45.373Z,1.00
2022-10-25T14:18:47.109Z,1.10
2022-10-25T14:22:52.638Z,1.10
2022-10-25T14:26:57.497Z,0.93
2022-10-25T14:31:00.534Z,1.07
2022-10-25T14:35:02.145Z,1.23
2022-10-25T14:39:15.369Z,1.10
2022-10-25T14:43:32.069Z,1.10
2022-10-25T14:47:33.887Z,1.10
2022-10-25T14:51:37.739Z,1.10
2022-10-25T14:55:39.163Z,0.90
2022-10-25T14:59:46.344Z,0.87
2022-10-25T15:03:50.306Z,1.00
2022-10-25T15:07:55.229Z,1.27
2022-10-25T15:12:05.370Z,1.03
2022-10-25T15:16:27.812Z,1.17
2022-10-25T15:20:30.527Z,1.10
2022-10-25T15:24:43.649Z,1.50
2022-10-25T15:28:48.892Z,1.10
2022-10-25T15:32:51.648Z,1.20
2022-10-25T15:36:53.030Z,1.40
2022-10-25T15:40:54.576Z,1.57
2022-10-25T15:44:55.948Z,1.63
2022-10-25T15:49:00.995Z,1.47
2022-10-25T15:53:02.871Z,1.80
2022-10-25T15:57:04.372Z,1.20
2022-10-25T16:01:05.846Z,1.50
2022-10-25T16:05:18.303Z,2.10
2022-10-25T16:09:19.752Z,1.70
2022-10-25T16:13:26.827Z,1.73
2022-10-25T16:17:28.435Z,1.43
2022-10-25T16:21:31.145Z,1.50
2022-10-25T16:25:33.408Z,1.50
2022-10-25T16:29:34.829Z,1.50
2022-10-25T16:33:36.264Z,1.87
2022-10-25T16:37:39.220Z,1.60
2022-10-25T16:41:42.710Z,1.77
2022-10-25T16:45:44.118Z,2.00
2022-10-25T16:49:45.556Z,1.70
2022-10-25T16:53:48.566Z,1.73
2022-10-25T16:57:50.182Z,1.73
2022-10-25T17:01:54.573Z,1.73
2022-10-25T17:05:56.251Z,2.87
2022-10-25T17:09:59.017Z,2.90
2022-10-25T17:14:00.452Z,2.70
2022-10-25T17:18:01.842Z,2.80
2022-10-25T17:22:03.435Z,3.40
2022-10-25T17:26:07.062Z,3.37
2022-10-25T17:30:10.239Z,3.43
2022-10-25T17:34:11.971Z,3.17
2022-10-25T17:38:13.418Z,3.17
2022-10-25T17:42:16.350Z,2.57
2022-10-25T17:46:20.202Z,2.50
2022-10-25T17:50:21.649Z,2.30
2022-10-25T17:54:24.053Z,2.13
2022-10-25T17:58:26.789Z,1.50
2022-10-25T18:02:28.624Z,1.87
2022-10-25T18:06:30.212Z,2.30
2022-10-25T18:10:32.902Z,2.07
2022-10-25T18:14:35.848Z,2.13
2022-10-25T18:18:37.323Z,2.27
2022-10-25T18:22:38.752Z,1.97
2022-10-25T18:26:40.248Z,1.73
2022-10-25T18:30:43.080Z,2.00
2022-10-25T18:34:44.461Z,2.03
2022-10-25T18:38:46.816Z,2.20
2022-10-25T18:42:48.224Z,1.93
2022-10-25T18:46:51.109Z,1.90
2022-10-25T18:50:52.784Z,2.03
2022-10-25T18:54:54.488Z,1.77
2022-10-25T18:58:56.353Z,1.80
2022-10-25T19:02:59.277Z,1.47
2022-10-25T19:07:00.814Z,2.70
2022-10-25T19:11:04.950Z,1.90
2022-10-25T19:15:08.973Z,1.90
2022-10-25T19:19:11.921Z,1.90
2022-10-25T19:23:13.323Z,2.20
2022-10-25T19:27:15.017Z,2.60
2022-10-25T19:31:17.554Z,2.20
2022-10-25T19:35:20.462Z,3.13
2022-10-25T19:39:22.124Z,6.40
2022-10-25T19:43:24.921Z,2.10
2022-10-25T19:47:26.418Z,2.43
2022-10-25T19:51:29.191Z,2.10
2022-10-25T19:55:30.725Z,2.13
2022-10-25T19:59:32.312Z,2.43
2022-10-25T20:03:34.604Z,2.20
2022-10-25T20:07:37.650Z,1.80
2022-10-25T20:11:39.053Z,2.37
2022-10-25T20:15:47.301Z,1.73
2022-10-25T20:19:48.888Z,1.93
2022-10-25T20:23:55.820Z,1.83
2022-10-25T20:27:57.498Z,1.80
2022-10-25T20:31:59.009Z,2.30
2022-10-25T20:36:01.961Z,1.60
2022-10-25T20:40:05.963Z,2.17
2022-10-25T20:44:08.092Z,2.53
2022-10-25T20:48:10.238Z,3.47
2022-10-25T20:52:11.777Z,5.90
2022-10-25T20:56:15.709Z,5.83
2022-10-25T21:00:20.451Z,4.97
2022-10-25T21:04:30.573Z,4.40
2022-10-25T21:08:43.573Z,4.50
2022-10-25T21:12:46.542Z,4.30
2022-10-25T21:16:49.292Z,4.83
2022-10-25T21:20:50.837Z,5.03
2022-10-25T21:24:52.225Z,4.40
2022-10-25T21:28:55.260Z,4.20
2022-10-25T21:32:56.698Z,2.97
2022-10-25T21:36:58.328Z,2.80
2022-10-25T21:41:07.797Z,12.87
2022-10-25T21:45:11.420Z,25.87
2022-10-25T21:49:12.920Z,36.20
2022-10-25T21:53:14.660Z,22.13
2022-10-25T21:57:16.185Z,22.73
2022-10-25T22:01:21.138Z,28.50
2022-10-25T22:05:22.637Z,23.67
2022-10-25T22:09:24.213Z,19.10
2022-10-25T22:13:26.293Z,18.40
2022-10-25T22:17:29.044Z,17.73
2022-10-25T22:21:33.261Z,18.17
2022-10-25T22:25:34.693Z,14.87
2022-10-25T22:29:36.080Z,13.87
2022-10-25T22:33:39.593Z,12.50
2022-10-25T22:37:41.221Z,8.57
2022-10-25T22:41:42.637Z,5.67
2022-10-25T22:45:44.149Z,5.43
2022-10-25T22:49:46.924Z,3.43
2022-10-25T22:53:48.476Z,2.60
2022-10-25T22:57:50.308Z,2.47
2022-10-25T23:01:53.557Z,2.33
2022-10-25T23:06:00.657Z,2.40
2022-10-25T23:10:02.061Z,3.00
2022-10-25T23:14:04.280Z,2.50
2022-10-25T23:18:06.036Z,2.40
2022-10-25T23:22:08.837Z,2.10
2022-10-25T23:26:14.225Z,2.13
2022-10-25T23:30:15.700Z,2.77
2022-10-25T23:34:17.277Z,4.40
2022-10-25T23:38:21.121Z,5.73
2022-10-25T23:42:22.792Z,4.90
2022-10-25T23:46:24.368Z,3.40
2022-10-25T23:50:25.769Z,3.10
2022-10-25T23:54:28.644Z,3.60
2022-10-25T23:58:30.589Z,4.10
